Time;durP1;ratioP1;P1;durP2;ratioP2;P2;SDS_P1;SDS_P2;PMS_P1;PMS_P2;Temp;Humidity;BMP_temperature;BMP_pressure;BME280_temperature;BME280_humidity;BME280_pressure;Samples;Min_cycle;Max_cycle;Signal;HPM_P1;HPM_P2
2021/09/11 00:00:19;;;;;;;15.35;12.68;;;17.00;99.90;;;;;;5041423;28;20155;-48
2021/09/11 00:02:47;;;;;;;18.27;12.30;;;17.00;99.90;;;;;;5041553;28;20096;-50
2021/09/11 00:05:14;;;;;;;13.80;11.50;;;17.00;99.90;;;;;;5039201;28;20075;-48
2021/09/11 00:07:40;;;;;;;13.77;11.95;;;17.00;99.90;;;;;;5041453;28;20027;-49
2021/09/11 00:10:08;;;;;;;12.07;10.88;;;17.00;99.90;;;;;;5040781;28;20534;-47
2021/09/11 00:12:35;;;;;;;13.05;11.68;;;17.00;99.90;;;;;;5041800;28;20372;-49
2021/09/11 00:15:02;;;;;;;13.88;12.23;;;17.00;99.90;;;;;;5038316;28;20265;-48
2021/09/11 00:17:27;;;;;;;13.63;11.18;;;17.00;99.90;;;;;;5041256;28;20025;-48
2021/09/11 00:19:53;;;;;;;11.90;10.00;;;17.00;99.90;;;;;;5040350;28;20040;-49
2021/09/11 00:22:19;;;;;;;13.07;10.50;;;17.00;99.90;;;;;;5041481;28;20668;-49
2021/09/11 00:24:44;;;;;;;11.45;10.25;;;17.00;99.90;;;;;;5023549;28;20487;-50
2021/09/11 00:27:10;;;;;;;11.27;9.82;;;17.00;99.90;;;;;;5041036;28;20024;-51
2021/09/11 00:29:37;;;;;;;13.52;10.77;;;17.00;99.90;;;;;;5041168;28;20029;-48
2021/09/11 00:32:06;;;;;;;11.07;9.98;;;17.00;99.90;;;;;;5042630;28;20379;-48
2021/09/11 00:34:32;;;;;;;11.32;9.85;;;17.00;99.90;;;;;;5027185;28;20691;-50
2021/09/11 00:36:57;;;;;;;13.32;10.13;;;17.00;99.90;;;;;;5044102;28;20021;-50
2021/09/11 00:39:23;;;;;;;15.77;10.30;;;17.00;99.90;;;;;;5045074;28;20102;-49
2021/09/11 00:41:53;;;;;;;12.55;10.27;;;17.00;99.90;;;;;;5044982;28;20075;-48
2021/09/11 00:44:18;;;;;;;14.20;11.32;;;17.00;99.90;;;;;;5045120;28;20022;-49
2021/09/11 00:46:44;;;;;;;11.85;10.45;;;17.00;99.90;;;;;;5046841;28;20082;-52
2021/09/11 00:49:09;;;;;;;11.40;10.30;;;17.00;99.90;;;;;;5025019;28;20048;-50
2021/09/11 00:51:36;;;;;;;11.50;10.25;;;17.00;99.90;;;;;;5046695;28;20048;-49
2021/09/11 00:54:03;;;;;;;10.48;9.23;;;17.00;99.90;;;;;;5037001;28;20022;-49
2021/09/11 00:56:30;;;;;;;11.15;10.00;;;16.90;99.90;;;;;;5040349;28;20096;-49
2021/09/11 00:58:55;;;;;;;10.05;8.95;;;16.90;99.90;;;;;;5046024;28;20033;-48
2021/09/11 01:01:21;;;;;;;15.82;12.05;;;16.90;99.90;;;;;;5038804;28;20497;-52
2021/09/11 01:03:47;;;;;;;14.85;10.57;;;16.90;99.90;;;;;;5045270;28;20029;-53
2021/09/11 01:06:13;;;;;;;14.70;10.82;;;16.90;99.90;;;;;;5044091;28;20036;-52
2021/09/11 01:08:43;;;;;;;12.35;10.45;;;16.90;99.90;;;;;;5046587;28;20058;-51
2021/09/11 01:11:10;;;;;;;11.20;10.00;;;16.90;99.90;;;;;;5042633;28;20079;-50
2021/09/11 01:13:36;;;;;;;13.05;10.77;;;16.90;99.90;;;;;;5032687;28;20026;-51
2021/09/11 01:16:02;;;;;;;11.93;10.63;;;16.90;99.90;;;;;;5042485;28;20056;-48
2021/09/11 01:18:28;;;;;;;11.98;10.75;;;16.90;99.90;;;;;;5045381;28;20057;-49
2021/09/11 01:20:54;;;;;;;13.73;10.15;;;16.90;99.90;;;;;;5044261;28;20130;-51
2021/09/11 01:23:20;;;;;;;13.75;11.25;;;16.90;99.90;;;;;;5040994;28;20026;-48
2021/09/11 01:25:46;;;;;;;11.95;10.57;;;16.90;99.90;;;;;;5040410;28;20502;-50
2021/09/11 01:28:13;;;;;;;11.50;9.85;;;16.80;99.90;;;;;;5043235;28;20037;-49
2021/09/11 01:30:38;;;;;;;14.50;10.70;;;16.90;99.90;;;;;;5038981;28;20028;-48
2021/09/11 01:33:04;;;;;;;11.82;9.95;;;16.90;99.90;;;;;;5036438;28;20013;-52
2021/09/11 01:35:30;;;;;;;16.02;12.45;;;16.90;99.90;;;;;;5041437;28;20076;-49
2021/09/11 01:37:56;;;;;;;14.23;12.55;;;16.90;99.90;;;;;;5040604;28;20116;-48
2021/09/11 01:40:22;;;;;;;14.23;11.85;;;16.90;99.90;;;;;;5048496;28;20029;-49
2021/09/11 01:42:48;;;;;;;16.77;13.55;;;16.80;99.90;;;;;;5042792;28;20438;-48
2021/09/11 01:45:19;;;;;;;17.77;12.90;;;16.80;99.90;;;;;;5041761;28;20049;-51
2021/09/11 01:47:46;;;;;;;14.30;12.65;;;16.80;99.90;;;;;;5043995;28;20082;-47
2021/09/11 01:50:14;;;;;;;13.80;12.27;;;16.80;99.90;;;;;;5025404;28;20029;-49
2021/09/11 01:52:41;;;;;;;15.25;12.25;;;16.80;99.90;;;;;;5044226;28;20032;-51
2021/09/11 01:55:09;;;;;;;16.67;13.95;;;16.80;99.90;;;;;;5041815;28;20036;-52
2021/09/11 01:57:35;;;;;;;14.57;13.05;;;16.80;99.90;;;;;;5043624;28;20028;-48
2021/09/11 02:00:02;;;;;;;13.80;11.50;;;16.80;99.90;;;;;;5042682;28;20044;-51
2021/09/11 02:02:28;;;;;;;14.18;11.95;;;16.80;99.90;;;;;;5043593;28;20033;-48
2021/09/11 02:04:53;;;;;;;13.48;12.07;;;16.80;99.90;;;;;;5043408;28;20079;-48
2021/09/11 02:07:19;;;;;;;14.43;11.38;;;16.80;99.90;;;;;;5039916;28;20104;-52
2021/09/11 02:09:45;;;;;;;15.02;13.25;;;16.80;99.90;;;;;;5043968;28;20086;-50
2021/09/11 02:12:10;;;;;;;13.07;10.82;;;16.80;99.90;;;;;;5041033;28;20067;-52
2021/09/11 02:14:36;;;;;;;14.95;12.32;;;16.80;99.90;;;;;;5043952;28;20484;-51
2021/09/11 02:17:03;;;;;;;14.52;12.00;;;16.80;99.90;;;;;;5042352;28;20025;-53
2021/09/11 02:19:29;;;;;;;15.05;11.77;;;16.80;99.90;;;;;;5043657;28;20025;-49
2021/09/11 02:21:55;;;;;;;16.15;11.70;;;16.80;99.90;;;;;;5035415;28;20099;-52
2021/09/11 02:24:20;;;;;;;15.20;13.40;;;16.80;99.90;;;;;;5024527;28;20029;-49
2021/09/11 02:26:46;;;;;;;17.10;13.00;;;16.80;99.90;;;;;;5037463;28;20072;-50
2021/09/11 02:29:11;;;;;;;18.63;13.07;;;16.80;99.90;;;;;;5042945;28;20082;-52
2021/09/11 02:31:37;;;;;;;16.13;12.18;;;16.80;99.90;;;;;;5044081;28;20036;-49
2021/09/11 02:34:03;;;;;;;17.83;13.85;;;16.80;99.90;;;;;;5024091;28;20036;-49
2021/09/11 02:36:29;;;;;;;17.65;14.07;;;16.80;99.90;;;;;;5043251;28;20053;-51
2021/09/11 02:38:54;;;;;;;17.83;14.38;;;16.80;99.90;;;;;;5042811;28;20568;-53
2021/09/11 02:41:20;;;;;;;22.02;15.63;;;16.80;99.90;;;;;;5039046;28;20030;-54
2021/09/11 02:43:45;;;;;;;22.23;15.95;;;16.80;99.90;;;;;;5045216;28;20024;-50
2021/09/11 02:46:11;;;;;;;22.98;16.10;;;16.90;99.90;;;;;;5040319;28;20061;-49
2021/09/11 02:48:37;;;;;;;21.90;15.65;;;16.90;99.90;;;;;;5044884;28;20036;-50
2021/09/11 02:51:03;;;;;;;27.70;18.60;;;16.90;99.90;;;;;;5041655;28;20021;-51
2021/09/11 02:53:28;;;;;;;26.25;18.48;;;16.90;99.90;;;;;;5039202;28;20442;-48
2021/09/11 02:55:54;;;;;;;27.70;18.85;;;16.90;99.90;;;;;;5045183;28;20025;-49
2021/09/11 02:58:22;;;;;;;28.23;18.42;;;16.90;99.90;;;;;;5038981;28;20040;-48
2021/09/11 03:00:49;;;;;;;25.45;18.20;;;16.90;99.90;;;;;;5045346;28;20064;-48
2021/09/11 03:03:15;;;;;;;24.00;18.40;;;16.90;99.90;;;;;;5039569;28;20033;-48
2021/09/11 03:05:41;;;;;;;24.98;18.52;;;16.90;99.90;;;;;;5026894;28;20033;-48
2021/09/11 03:08:06;;;;;;;28.05;17.55;;;16.90;99.90;;;;;;5022902;28;20045;-48
2021/09/11 03:10:32;;;;;;;22.52;16.75;;;16.90;99.90;;;;;;5020299;28;20514;-48
2021/09/11 03:12:57;;;;;;;23.83;18.05;;;16.90;99.90;;;;;;5045268;28;20625;-50
2021/09/11 03:15:23;;;;;;;30.90;19.95;;;16.90;99.90;;;;;;5038219;28;20029;-49
2021/09/11 03:17:48;;;;;;;26.60;18.30;;;16.90;99.90;;;;;;5027360;28;20028;-47
2021/09/11 03:20:14;;;;;;;28.65;19.65;;;16.90;99.90;;;;;;5039322;28;20094;-50
2021/09/11 03:22:39;;;;;;;26.50;18.55;;;16.90;99.90;;;;;;5044680;28;20039;-50
2021/09/11 03:25:05;;;;;;;30.40;18.95;;;16.90;99.90;;;;;;5040395;28;20025;-52
2021/09/11 03:27:31;;;;;;;27.90;19.65;;;16.90;99.90;;;;;;5038453;28;20037;-48
2021/09/11 03:29:56;;;;;;;25.17;18.75;;;16.90;99.90;;;;;;5044828;28;20036;-48
2021/09/11 03:32:22;;;;;;;26.80;18.55;;;16.90;99.90;;;;;;5038423;28;20029;-51
2021/09/11 03:34:48;;;;;;;27.73;19.85;;;16.90;99.90;;;;;;5044422;28;20032;-49
2021/09/11 03:37:13;;;;;;;27.02;19.10;;;16.90;99.90;;;;;;5038942;28;20422;-52
2021/09/11 03:39:39;;;;;;;32.55;19.70;;;16.90;99.90;;;;;;5041866;28;20029;-49
2021/09/11 03:42:04;;;;;;;31.48;20.35;;;16.90;99.90;;;;;;5039702;28;20053;-49
2021/09/11 03:44:30;;;;;;;31.00;21.88;;;16.90;99.90;;;;;;5043751;28;20083;-47
2021/09/11 03:46:56;;;;;;;26.77;17.55;;;16.90;99.90;;;;;;5038484;28;20452;-50
2021/09/11 03:49:21;;;;;;;30.75;20.27;;;16.90;99.90;;;;;;5046011;28;20051;-48
2021/09/11 03:51:47;;;;;;;29.45;20.95;;;16.90;99.90;;;;;;5020466;28;20443;-47
2021/09/11 03:54:12;;;;;;;29.88;20.25;;;17.00;99.90;;;;;;5040812;28;20101;-50
2021/09/11 03:56:39;;;;;;;32.03;21.92;;;17.00;99.90;;;;;;5041718;28;20049;-49
2021/09/11 03:59:05;;;;;;;34.15;21.85;;;17.00;99.90;;;;;;5039501;28;20076;-49
2021/09/11 04:01:30;;;;;;;31.40;20.13;;;17.00;99.90;;;;;;5043715;28;20033;-50
2021/09/11 04:03:56;;;;;;;28.08;20.02;;;17.00;99.90;;;;;;5038298;28;20088;-47
2021/09/11 04:06:22;;;;;;;37.40;22.95;;;17.00;99.90;;;;;;5027106;28;20121;-48
2021/09/11 04:08:47;;;;;;;33.03;22.20;;;17.00;99.90;;;;;;5037310;28;20033;-49
2021/09/11 04:11:13;;;;;;;31.75;20.17;;;17.00;99.90;;;;;;5040342;28;20037;-48
2021/09/11 04:13:38;;;;;;;29.67;20.80;;;17.00;99.90;;;;;;5041364;28;20074;-48
2021/09/11 04:16:04;;;;;;;31.65;20.15;;;17.00;99.90;;;;;;5021302;28;20499;-49
2021/09/11 04:18:30;;;;;;;27.60;19.70;;;17.00;99.90;;;;;;5043625;28;20026;-48
2021/09/11 04:20:56;;;;;;;27.88;19.23;;;17.00;99.90;;;;;;5037972;28;20021;-47
2021/09/11 04:23:21;;;;;;;29.25;19.52;;;17.00;99.90;;;;;;5046313;28;20033;-50
2021/09/11 04:25:47;;;;;;;29.35;20.08;;;17.00;99.90;;;;;;5037670;28;20029;-48
2021/09/11 04:28:12;;;;;;;27.73;18.45;;;17.00;99.90;;;;;;5040326;28;20032;-48
2021/09/11 04:30:38;;;;;;;28.92;21.00;;;17.00;99.90;;;;;;5023735;28;20406;-49
2021/09/11 04:33:04;;;;;;;31.88;20.95;;;17.00;99.90;;;;;;5021321;28;20372;-48
2021/09/11 04:35:30;;;;;;;32.75;20.13;;;17.00;99.90;;;;;;5043373;28;20028;-52
2021/09/11 04:38:00;;;;;;;30.00;20.88;;;17.10;99.90;;;;;;5037874;28;20476;-49
2021/09/11 04:40:27;;;;;;;31.50;21.55;;;17.10;99.90;;;;;;5044718;28;20491;-48
2021/09/11 04:42:54;;;;;;;33.50;20.83;;;17.00;99.90;;;;;;5040518;28;20390;-49
2021/09/11 04:45:20;;;;;;;31.20;21.48;;;17.00;99.90;;;;;;5029182;28;20403;-48
2021/09/11 04:47:45;;;;;;;32.67;21.83;;;17.10;99.90;;;;;;5041185;28;20029;-49
2021/09/11 04:50:11;;;;;;;31.48;20.88;;;17.10;99.90;;;;;;5040532;28;20052;-48
2021/09/11 04:52:37;;;;;;;32.85;21.02;;;17.00;99.90;;;;;;5041418;28;20071;-48
2021/09/11 04:55:03;;;;;;;31.38;19.27;;;17.10;99.90;;;;;;5020930;28;20024;-48
2021/09/11 04:57:28;;;;;;;29.55;18.77;;;17.00;99.90;;;;;;5041081;28;20321;-49
2021/09/11 04:59:54;;;;;;;30.20;18.75;;;17.00;99.90;;;;;;5039693;28;20033;-48
2021/09/11 05:02:19;;;;;;;35.33;20.67;;;17.00;99.90;;;;;;5040957;28;20536;-48
2021/09/11 05:04:45;;;;;;;35.80;22.05;;;17.10;99.90;;;;;;5040715;28;20029;-49
2021/09/11 05:07:11;;;;;;;32.22;20.83;;;17.00;99.90;;;;;;5040474;28;20033;-48
2021/09/11 05:09:36;;;;;;;32.20;20.33;;;17.10;99.90;;;;;;5040561;28;20471;-48
2021/09/11 05:12:04;;;;;;;33.90;20.73;;;17.10;99.90;;;;;;5038976;28;20336;-49
2021/09/11 05:14:33;;;;;;;32.30;19.90;;;17.10;99.90;;;;;;5040294;28;20044;-51
2021/09/11 05:16:58;;;;;;;25.98;17.30;;;17.10;99.90;;;;;;5039559;28;20483;-51
2021/09/11 05:19:24;;;;;;;27.77;17.60;;;17.10;99.90;;;;;;5044456;28;20029;-50
2021/09/11 05:21:50;;;;;;;24.60;16.10;;;17.10;99.90;;;;;;5044520;28;20017;-47
2021/09/11 05:24:16;;;;;;;27.42;19.45;;;17.10;99.90;;;;;;5043744;28;20021;-48
2021/09/11 05:26:42;;;;;;;34.17;22.25;;;17.10;99.90;;;;;;5043950;28;20021;-48
2021/09/11 05:29:08;;;;;;;30.15;19.85;;;17.10;99.90;;;;;;5042039;28;20032;-49
2021/09/11 05:31:33;;;;;;;30.58;19.77;;;17.20;99.90;;;;;;5026224;28;20112;-49
2021/09/11 05:33:59;;;;;;;31.90;21.48;;;17.20;99.90;;;;;;5042808;28;20124;-48
2021/09/11 05:36:25;;;;;;;36.25;21.40;;;17.20;99.90;;;;;;5043823;28;20033;-50
2021/09/11 05:38:51;;;;;;;35.90;22.70;;;17.20;99.90;;;;;;5044040;28;20031;-49
2021/09/11 05:41:16;;;;;;;33.17;22.42;;;17.20;99.90;;;;;;5044069;28;20028;-47
2021/09/11 05:43:42;;;;;;;34.63;21.70;;;17.20;99.90;;;;;;5045876;28;20056;-49
2021/09/11 05:46:07;;;;;;;39.65;23.80;;;17.20;99.90;;;;;;5041913;28;20032;-49
2021/09/11 05:48:34;;;;;;;34.28;21.50;;;17.30;99.90;;;;;;5027365;28;20025;-47
2021/09/11 05:51:01;;;;;;;33.67;21.02;;;17.30;99.90;;;;;;5043094;28;20029;-49
2021/09/11 05:53:26;;;;;;;38.08;22.67;;;17.20;99.90;;;;;;5040306;28;20112;-48
2021/09/11 05:55:52;;;;;;;37.55;22.77;;;17.30;99.90;;;;;;5028212;28;20132;-50
2021/09/11 05:58:17;;;;;;;30.75;20.73;;;17.30;99.90;;;;;;5040340;28;20028;-48
2021/09/11 06:00:43;;;;;;;32.38;20.08;;;17.30;99.90;;;;;;5045798;28;20032;-47
2021/09/11 06:03:08;;;;;;;28.48;17.98;;;17.30;99.90;;;;;;5041323;28;20053;-49
2021/09/11 06:05:34;;;;;;;29.42;19.33;;;17.40;99.90;;;;;;5044870;28;20036;-52
2021/09/11 06:07:59;;;;;;;32.47;21.13;;;17.40;99.90;;;;;;5042607;28;20033;-51
2021/09/11 06:10:25;;;;;;;33.30;22.50;;;17.40;99.90;;;;;;5039372;28;20503;-50
2021/09/11 06:12:51;;;;;;;32.53;20.65;;;17.40;99.90;;;;;;5045748;28;20582;-48
2021/09/11 06:15:17;;;;;;;31.75;19.65;;;17.40;99.90;;;;;;5021640;28;20049;-50
2021/09/11 06:17:42;;;;;;;31.65;20.30;;;17.40;99.90;;;;;;5027576;28;20417;-51
2021/09/11 06:20:09;;;;;;;36.92;22.55;;;17.40;99.90;;;;;;5041611;28;20371;-51
2021/09/11 06:22:35;;;;;;;33.58;21.35;;;17.50;99.90;;;;;;5045228;28;20566;-51
2021/09/11 06:25:01;;;;;;;39.25;25.20;;;17.50;99.90;;;;;;5023868;28;20124;-51
2021/09/11 06:27:26;;;;;;;39.38;23.42;;;17.50;99.90;;;;;;5039379;28;20021;-48
2021/09/11 06:29:52;;;;;;;39.17;24.20;;;17.50;99.90;;;;;;5044807;28;20064;-52
2021/09/11 06:32:18;;;;;;;37.70;24.10;;;17.60;99.90;;;;;;5039492;28;20471;-49
2021/09/11 06:34:43;;;;;;;44.17;24.50;;;17.60;99.90;;;;;;5026743;28;20025;-48
2021/09/11 06:37:09;;;;;;;49.47;26.55;;;17.60;99.90;;;;;;5040886;28;20108;-50
2021/09/11 06:39:34;;;;;;;42.92;26.33;;;17.70;99.90;;;;;;5042892;28;20099;-49
2021/09/11 06:42:00;;;;;;;48.20;26.33;;;17.70;99.90;;;;;;5040086;28;20021;-51
2021/09/11 06:44:25;;;;;;;48.17;27.17;;;17.70;99.90;;;;;;5045618;28;20032;-50
2021/09/11 06:46:51;;;;;;;46.33;26.60;;;17.70;99.90;;;;;;5038943;28;20014;-48
2021/09/11 06:49:16;;;;;;;53.72;29.77;;;17.80;99.90;;;;;;5047274;28;20087;-48
2021/09/11 06:51:42;;;;;;;44.40;27.45;;;17.70;99.90;;;;;;5039380;28;20108;-50
2021/09/11 06:54:07;;;;;;;47.80;26.80;;;17.80;99.90;;;;;;5040964;28;20022;-50
2021/09/11 06:56:33;;;;;;;51.50;27.02;;;17.80;99.90;;;;;;5043255;28;20029;-54
2021/09/11 06:58:59;;;;;;;49.20;26.80;;;17.80;99.90;;;;;;5039451;28;20029;-48
2021/09/11 07:01:24;;;;;;;47.92;26.15;;;17.90;99.90;;;;;;5045507;28;20108;-48
2021/09/11 07:03:50;;;;;;;59.97;28.58;;;18.00;99.90;;;;;;5038339;28;20029;-48
2021/09/11 07:06:16;;;;;;;49.03;26.77;;;18.10;99.90;;;;;;5046357;28;20021;-53
2021/09/11 07:08:41;;;;;;;50.47;26.15;;;18.20;99.90;;;;;;5038096;28;20029;-53
2021/09/11 07:11:14;;;;;;;52.08;28.65;;;18.30;99.90;;;;;;5073820;22;20102;-48
2021/09/11 07:13:40;;;;;;;49.22;25.27;;;18.40;99.90;;;;;;5061028;28;20361;-49
2021/09/11 07:16:06;;;;;;;46.60;24.95;;;18.40;99.90;;;;;;5059387;28;20108;-50
2021/09/11 07:18:33;;;;;;;47.42;26.35;;;18.50;99.90;;;;;;5063765;28;20121;-49
2021/09/11 07:20:59;;;;;;;42.92;24.70;;;18.50;99.90;;;;;;5058868;28;20028;-49
2021/09/11 07:23:25;;;;;;;48.63;25.63;;;18.60;99.90;;;;;;5065854;28;20025;-52
2021/09/11 07:25:51;;;;;;;53.75;28.55;;;18.60;99.90;;;;;;5057215;28;20019;-49
2021/09/11 07:28:17;;;;;;;56.17;28.70;;;18.60;99.90;;;;;;5061134;28;20031;-50
2021/09/11 07:30:42;;;;;;;47.67;27.10;;;18.70;99.90;;;;;;5061160;28;20017;-51
2021/09/11 07:33:08;;;;;;;46.10;25.95;;;18.70;99.90;;;;;;5055831;28;20025;-49
2021/09/11 07:35:34;;;;;;;44.15;27.23;;;18.70;99.90;;;;;;5055950;28;20532;-50
2021/09/11 07:37:59;;;;;;;46.38;25.63;;;18.70;99.90;;;;;;5058320;28;20491;-50
2021/09/11 07:40:25;;;;;;;44.92;25.23;;;18.70;99.90;;;;;;5060754;28;20024;-49
2021/09/11 07:42:51;;;;;;;39.90;23.30;;;18.70;99.90;;;;;;5054226;28;20029;-49
2021/09/11 07:45:17;;;;;;;43.53;25.70;;;18.70;99.90;;;;;;5064077;28;20498;-49
2021/09/11 07:47:42;;;;;;;39.65;23.83;;;18.80;99.90;;;;;;5058178;28;20025;-50
2021/09/11 07:50:10;;;;;;;43.42;26.92;;;18.70;99.90;;;;;;5065403;28;20020;-53
2021/09/11 07:52:36;;;;;;;45.30;26.13;;;18.80;99.90;;;;;;5058149;28;20383;-48
2021/09/11 07:55:03;;;;;;;41.97;25.13;;;18.80;99.90;;;;;;5066191;28;20032;-53
2021/09/11 07:57:28;;;;;;;33.95;23.95;;;18.80;99.90;;;;;;5039844;28;20487;-51
2021/09/11 07:59:55;;;;;;;42.47;25.20;;;18.80;99.90;;;;;;5058161;28;20112;-50
2021/09/11 08:02:21;;;;;;;37.40;23.90;;;18.90;99.90;;;;;;5051923;28;20025;-49
2021/09/11 08:04:46;;;;;;;36.83;23.80;;;18.90;99.90;;;;;;5057798;28;20017;-53
2021/09/11 08:07:12;;;;;;;40.65;27.08;;;18.90;99.90;;;;;;5066158;28;20037;-54
2021/09/11 08:09:38;;;;;;;34.80;24.90;;;18.90;99.90;;;;;;5058832;28;20036;-49
2021/09/11 08:12:03;;;;;;;36.30;23.80;;;18.80;99.90;;;;;;5059232;28;20061;-48
2021/09/11 08:14:29;;;;;;;30.60;21.35;;;18.90;99.90;;;;;;5062050;28;20406;-57
2021/09/11 08:16:55;;;;;;;36.67;24.13;;;18.90;99.90;;;;;;5058029;28;20032;-51
2021/09/11 08:19:20;;;;;;;38.92;24.52;;;19.00;99.90;;;;;;5051470;28;20083;-49
2021/09/11 08:21:46;;;;;;;35.88;23.83;;;19.00;99.90;;;;;;5040335;28;20032;-49
2021/09/11 08:24:11;;;;;;;33.90;23.08;;;19.10;99.90;;;;;;5065693;28;20029;-48
2021/09/11 08:26:37;;;;;;;29.58;21.25;;;19.10;99.90;;;;;;5057937;28;20021;-49
2021/09/11 08:29:03;;;;;;;31.30;22.63;;;19.10;99.90;;;;;;5041195;28;20064;-49
2021/09/11 08:31:29;;;;;;;32.55;23.40;;;19.10;99.90;;;;;;5062779;28;20049;-51
2021/09/11 08:33:55;;;;;;;26.00;20.08;;;19.10;99.90;;;;;;5058074;28;20025;-50
2021/09/11 08:36:22;;;;;;;35.28;22.85;;;19.10;99.90;;;;;;5050912;28;20032;-51
2021/09/11 08:38:47;;;;;;;29.70;22.17;;;19.10;99.90;;;;;;5057857;28;20047;-48
2021/09/11 08:41:13;;;;;;;28.45;21.40;;;19.10;99.90;;;;;;5065752;28;20482;-50
2021/09/11 08:43:39;;;;;;;32.08;21.52;;;19.10;99.90;;;;;;5057595;28;20021;-52
2021/09/11 08:46:05;;;;;;;31.30;22.45;;;19.10;99.90;;;;;;5058903;28;20040;-49
2021/09/11 08:48:30;;;;;;;29.98;21.58;;;19.10;99.90;;;;;;5063592;28;20036;-50
2021/09/11 08:50:57;;;;;;;32.25;21.42;;;19.10;99.90;;;;;;5040048;28;20020;-51
2021/09/11 08:53:22;;;;;;;31.08;23.42;;;19.10;99.90;;;;;;5069530;28;20060;-51
2021/09/11 08:55:48;;;;;;;30.30;21.95;;;19.10;99.90;;;;;;5061361;28;20051;-49
2021/09/11 08:58:20;;;;;;;32.63;21.20;;;19.10;99.90;;;;;;5064180;28;20021;-50
2021/09/11 09:00:51;;;;;;;32.28;23.15;;;19.20;99.90;;;;;;5064311;28;20589;-53
2021/09/11 09:03:37;;;;;;;29.65;20.50;;;19.10;99.90;;;;;;5064602;28;20024;-52
2021/09/11 09:06:22;;;;;;;29.08;21.23;;;19.10;99.90;;;;;;5045497;28;20017;-49
2021/09/11 09:08:51;;;;;;;33.80;24.63;;;19.10;99.90;;;;;;5064884;28;20043;-51
2021/09/11 09:11:19;;;;;;;31.60;23.42;;;19.10;99.90;;;;;;5064222;28;20029;-51
2021/09/11 09:14:04;;;;;;;38.22;26.08;;;19.10;99.90;;;;;;5046720;28;20457;-51
2021/09/11 09:16:37;;;;;;;37.88;24.23;;;19.10;99.90;;;;;;5039575;28;20035;-50
2021/09/11 09:19:24;;;;;;;32.47;21.10;;;19.10;99.90;;;;;;5063626;28;20035;-50
2021/09/11 09:21:54;;;;;;;31.98;22.65;;;19.20;99.90;;;;;;5063731;28;20024;-50
2021/09/11 09:24:49;;;;;;;33.20;22.35;;;19.20;99.90;;;;;;5061030;28;20716;-50
2021/09/11 09:27:15;;;;;;;33.67;22.58;;;19.20;99.90;;;;;;5012725;28;20739;-51
2021/09/11 09:29:40;;;;;;;33.75;24.08;;;19.20;99.90;;;;;;5060740;28;20024;-50
2021/09/11 09:32:07;;;;;;;38.85;25.33;;;19.20;99.90;;;;;;5062319;28;20437;-49
2021/09/11 09:34:34;;;;;;;30.90;21.77;;;19.20;99.90;;;;;;5065201;28;20566;-51
2021/09/11 09:37:02;;;;;;;30.65;21.45;;;19.30;99.90;;;;;;5043472;28;20021;-50
2021/09/11 09:39:29;;;;;;;33.80;24.10;;;19.20;99.90;;;;;;5066941;28;20154;-53
2021/09/11 09:42:02;;;;;;;37.05;23.77;;;19.20;99.90;;;;;;5060438;28;20013;-50
2021/09/11 09:44:28;;;;;;;39.10;24.98;;;19.30;99.90;;;;;;5053261;28;20059;-51
2021/09/11 09:46:53;;;;;;;39.25;25.70;;;19.40;99.90;;;;;;5063168;28;20074;-50
2021/09/11 09:49:22;;;;;;;37.00;24.83;;;19.40;99.90;;;;;;5064096;28;20024;-50
2021/09/11 09:51:49;;;;;;;39.80;24.45;;;19.50;99.90;;;;;;5064273;28;20497;-51
2021/09/11 09:54:15;;;;;;;38.08;24.25;;;19.60;99.90;;;;;;5063717;28;20032;-52
2021/09/11 09:56:41;;;;;;;36.40;27.52;;;19.70;99.90;;;;;;5063781;28;20099;-50
2021/09/11 09:59:09;;;;;;;42.55;27.45;;;19.80;99.90;;;;;;5061648;28;20015;-51
2021/09/11 10:01:35;;;;;;;35.30;25.88;;;19.90;99.90;;;;;;5063993;28;20100;-53
2021/09/11 10:04:19;;;;;;;35.00;25.27;;;19.90;99.90;;;;;;5061958;28;20441;-54
2021/09/11 10:06:53;;;;;;;33.83;24.15;;;20.00;99.90;;;;;;5063531;28;20028;-55
2021/09/11 10:09:24;;;;;;;36.15;25.38;;;20.00;99.90;;;;;;5062644;28;20032;-50
2021/09/11 10:11:51;;;;;;;34.30;23.20;;;20.10;99.90;;;;;;5045610;28;20036;-54
2021/09/11 10:14:20;;;;;;;30.85;22.65;;;20.00;99.90;;;;;;5060197;28;20433;-52
2021/09/11 10:16:59;;;;;;;33.45;23.27;;;20.00;99.90;;;;;;5065043;28;20020;-54
2021/09/11 10:19:27;;;;;;;30.75;22.25;;;20.00;99.90;;;;;;5056943;28;20017;-53
2021/09/11 10:22:18;;;;;;;29.27;20.88;;;20.10;99.90;;;;;;5067124;28;20020;-55
2021/09/11 10:24:48;;;;;;;31.45;21.85;;;20.10;99.90;;;;;;5048522;28;20048;-53
2021/09/11 10:27:24;;;;;;;31.75;21.70;;;20.20;99.90;;;;;;5068267;28;20104;-50
2021/09/11 10:29:55;;;;;;;28.13;21.45;;;20.20;99.90;;;;;;5058999;28;20021;-51
2021/09/11 10:32:26;;;;;;;37.08;22.60;;;20.30;99.90;;;;;;5047796;28;20024;-50
2021/09/11 10:34:53;;;;;;;31.58;24.25;;;20.40;99.90;;;;;;5043640;28;20017;-52
2021/09/11 10:37:30;;;;;;;33.63;23.30;;;20.40;99.90;;;;;;5062893;28;20024;-50
2021/09/11 10:40:11;;;;;;;26.52;20.95;;;20.50;99.90;;;;;;5061711;28;20023;-55
2021/09/11 10:43:05;;;;;;;25.88;20.02;;;20.50;99.90;;;;;;5062725;28;20414;-52
2021/09/11 10:45:52;;;;;;;28.55;20.45;;;20.60;99.90;;;;;;5056705;28;20017;-54
2021/09/11 10:48:43;;;;;;;25.13;17.90;;;20.70;99.90;;;;;;5066455;28;20386;-53
2021/09/11 10:51:21;;;;;;;25.23;18.63;;;20.70;99.90;;;;;;5059636;28;20059;-51
2021/09/11 10:54:07;;;;;;;25.33;16.92;;;20.70;99.90;;;;;;5063718;28;20021;-51
2021/09/11 10:56:34;;;;;;;;;;;20.70;99.90;;;;;;5052960;28;20604;-55
2021/09/11 10:59:15;;;;;;;23.15;17.85;;;20.80;99.90;;;;;;5042686;28;19904;-51
2021/09/11 11:01:54;;;;;;;24.35;18.55;;;20.90;99.90;;;;;;5062587;28;20111;-52
2021/09/11 11:04:27;;;;;;;23.13;16.27;;;21.00;99.90;;;;;;5061350;28;20017;-54
2021/09/11 11:06:55;;;;;;;20.95;16.35;;;21.00;99.90;;;;;;5062490;28;20044;-52
2021/09/11 11:09:21;;;;;;;22.60;16.05;;;20.90;99.90;;;;;;5059716;28;20028;-55
2021/09/11 11:11:48;;;;;;;21.77;15.40;;;20.80;99.90;;;;;;5061747;28;20426;-54
2021/09/11 11:14:15;;;;;;;22.25;17.08;;;20.80;99.90;;;;;;5059224;28;20024;-55
2021/09/11 11:16:47;;;;;;;23.40;17.63;;;20.70;99.90;;;;;;5062886;28;20020;-51
2021/09/11 11:19:27;;;;;;;23.58;17.55;;;20.60;99.90;;;;;;5059571;28;20240;-51
2021/09/11 11:21:57;;;;;;;22.63;17.35;;;20.40;99.90;;;;;;5066060;28;20032;-53
2021/09/11 11:24:23;;;;;;;21.75;16.63;;;20.40;99.90;;;;;;5053808;28;20031;-54
2021/09/11 11:26:49;;;;;;;23.52;17.75;;;20.30;99.90;;;;;;5065779;28;20502;-51
2021/09/11 11:29:19;;;;;;;21.75;15.43;;;20.30;99.90;;;;;;5059230;28;20032;-53
2021/09/11 11:31:48;;;;;;;22.35;16.98;;;20.30;99.90;;;;;;5053784;28;20053;-53
2021/09/11 11:34:15;;;;;;;20.88;16.77;;;20.30;99.90;;;;;;5064959;28;20050;-50
2021/09/11 11:36:56;;;;;;;20.23;15.75;;;20.30;99.90;;;;;;5058229;28;20025;-51
2021/09/11 11:39:31;;;;;;;22.45;17.63;;;20.30;99.90;;;;;;5051459;28;20013;-51
2021/09/11 11:42:03;;;;;;;22.38;17.63;;;20.20;99.90;;;;;;5055244;28;20052;-53
2021/09/11 11:44:32;;;;;;;19.38;17.20;;;20.20;99.90;;;;;;5027096;28;20024;-54
2021/09/11 11:47:24;;;;;;;20.75;16.98;;;20.20;99.90;;;;;;5060554;28;20017;-50
2021/09/11 11:49:51;;;;;;;24.15;18.27;;;20.20;99.90;;;;;;5061845;28;20032;-51
2021/09/11 11:52:18;;;;;;;22.95;18.70;;;20.40;99.90;;;;;;5061485;28;20020;-51
2021/09/11 11:54:45;;;;;;;20.27;18.02;;;20.40;99.90;;;;;;5061387;28;20024;-50
2021/09/11 11:57:16;;;;;;;20.63;17.90;;;20.40;99.90;;;;;;5041316;28;20020;-53
2021/09/11 11:59:43;;;;;;;25.10;18.52;;;20.40;99.90;;;;;;5062846;28;20024;-51
2021/09/11 12:02:24;;;;;;;21.05;18.80;;;20.50;99.90;;;;;;5059382;28;20572;-52
2021/09/11 12:04:51;;;;;;;20.23;17.90;;;20.50;99.90;;;;;;5046400;28;20096;-51
2021/09/11 12:07:59;;;;;;;22.95;19.13;;;20.50;99.90;;;;;;5058265;28;20016;-52
2021/09/11 12:10:27;;;;;;;19.92;17.92;;;20.60;99.90;;;;;;5020441;28;20473;-52
2021/09/11 12:13:03;;;;;;;21.25;18.90;;;20.50;99.90;;;;;;5058266;28;20352;-55
2021/09/11 12:15:29;;;;;;;19.23;17.30;;;20.60;99.90;;;;;;5030872;28;20020;-56
2021/09/11 12:18:01;;;;;;;18.92;16.92;;;20.50;99.90;;;;;;5059461;28;20392;-55
2021/09/11 12:20:28;;;;;;;18.48;16.40;;;20.60;99.90;;;;;;5048152;28;20032;-57
2021/09/11 12:23:10;;;;;;;17.27;15.43;;;20.60;99.90;;;;;;5060544;28;20044;-54
2021/09/11 12:25:50;;;;;;;15.63;14.13;;;20.70;99.90;;;;;;5051098;28;20024;-55
2021/09/11 12:28:31;;;;;;;15.63;14.05;;;20.70;99.90;;;;;;5064862;28;20090;-53
2021/09/11 12:30:57;;;;;;;13.18;11.82;;;20.80;99.90;;;;;;5064729;28;20030;-53